sensor_id;sensor_type;location;lat;lon;timestamp;P1;durP1;ratioP1;P2;durP2;ratioP2
50350;SDS011;36250;48.740;22.174;2022-10-16T00:00:30;36.25;;;25.60;;
50350;SDS011;36250;48.740;22.174;2022-10-16T00:02:56;36.95;;;26.67;;
50350;SDS011;36250;48.740;22.174;2022-10-16T00:05:21;41.40;;;26.05;;
50350;SDS011;36250;48.740;22.174;2022-10-16T00:07:47;34.15;;;25.33;;
50350;SDS011;36250;48.740;22.174;2022-10-16T00:10:12;32.42;;;25.23;;
50350;SDS011;36250;48.740;22.174;2022-10-16T00:12:37;40.30;;;28.13;;
50350;SDS011;36250;48.740;22.174;2022-10-16T00:15:03;47.55;;;30.90;;
50350;SDS011;36250;48.740;22.174;2022-10-16T00:17:29;47.00;;;31.23;;
50350;SDS011;36250;48.740;22.174;2022-10-16T00:19:55;48.35;;;32.90;;
50350;SDS011;36250;48.740;22.174;2022-10-16T00:22:20;44.03;;;29.95;;
50350;SDS011;36250;48.740;22.174;2022-10-16T00:24:45;47.78;;;31.10;;
50350;SDS011;36250;48.740;22.174;2022-10-16T00:27:10;45.22;;;31.48;;
50350;SDS011;36250;48.740;22.174;2022-10-16T00:29:36;49.40;;;30.98;;
50350;SDS011;36250;48.740;22.174;2022-10-16T00:32:01;44.78;;;31.58;;
50350;SDS011;36250;48.740;22.174;2022-10-16T00:34:26;45.72;;;29.45;;
50350;SDS011;36250;48.740;22.174;2022-10-16T00:36:52;51.08;;;31.38;;
50350;SDS011;36250;48.740;22.174;2022-10-16T00:39:17;47.78;;;30.42;;
50350;SDS011;36250;48.740;22.174;2022-10-16T00:41:42;47.42;;;30.98;;
50350;SDS011;36250;48.740;22.174;2022-10-16T00:47:10;45.10;;;30.05;;
50350;SDS011;36250;48.740;22.174;2022-10-16T00:49:37;47.78;;;31.10;;
50350;SDS011;36250;48.740;22.174;2022-10-16T00:52:03;43.60;;;29.33;;
50350;SDS011;36250;48.740;22.174;2022-10-16T00:54:30;41.72;;;27.92;;
50350;SDS011;36250;48.740;22.174;2022-10-16T00:56:57;41.15;;;26.98;;
50350;SDS011;36250;48.740;22.174;2022-10-16T00:59:27;39.38;;;27.98;;
50350;SDS011;36250;48.740;22.174;2022-10-16T01:01:58;36.03;;;26.97;;
50350;SDS011;36250;48.740;22.174;2022-10-16T01:04:23;41.70;;;28.45;;
50350;SDS011;36250;48.740;22.174;2022-10-16T01:06:56;41.97;;;28.85;;
50350;SDS011;36250;48.740;22.174;2022-10-16T01:09:31;41.83;;;27.17;;
50350;SDS011;36250;48.740;22.174;2022-10-16T01:14:43;46.15;;;27.70;;
50350;SDS011;36250;48.740;22.174;2022-10-16T01:17:14;39.00;;;26.92;;
50350;SDS011;36250;48.740;22.174;2022-10-16T01:19:56;40.70;;;26.80;;
50350;SDS011;36250;48.740;22.174;2022-10-16T01:22:48;46.35;;;29.83;;
50350;SDS011;36250;48.740;22.174;2022-10-16T01:25:26;41.15;;;26.60;;
50350;SDS011;36250;48.740;22.174;2022-10-16T01:27:59;42.53;;;28.55;;
50350;SDS011;36250;48.740;22.174;2022-10-16T01:30:29;47.20;;;29.42;;
50350;SDS011;36250;48.740;22.174;2022-10-16T01:33:06;53.30;;;28.02;;
50350;SDS011;36250;48.740;22.174;2022-10-16T01:35:37;39.60;;;26.70;;
50350;SDS011;36250;48.740;22.174;2022-10-16T01:38:12;31.83;;;25.27;;
50350;SDS011;36250;48.740;22.174;2022-10-16T01:40:50;36.17;;;26.50;;
50350;SDS011;36250;48.740;22.174;2022-10-16T01:43:26;36.40;;;25.13;;
50350;SDS011;36250;48.740;22.174;2022-10-16T01:45:56;44.83;;;27.63;;
50350;SDS011;36250;48.740;22.174;2022-10-16T01:48:23;40.28;;;27.77;;
50350;SDS011;36250;48.740;22.174;2022-10-16T01:50:54;36.85;;;25.25;;
50350;SDS011;36250;48.740;22.174;2022-10-16T01:53:28;45.63;;;26.17;;
50350;SDS011;36250;48.740;22.174;2022-10-16T01:55:54;43.72;;;27.02;;
50350;SDS011;36250;48.740;22.174;2022-10-16T01:58:21;36.28;;;24.88;;
50350;SDS011;36250;48.740;22.174;2022-10-16T02:00:48;33.40;;;23.98;;
50350;SDS011;36250;48.740;22.174;2022-10-16T02:03:14;39.60;;;26.15;;
50350;SDS011;36250;48.740;22.174;2022-10-16T02:05:44;38.15;;;25.80;;
50350;SDS011;36250;48.740;22.174;2022-10-16T02:08:12;41.20;;;26.17;;
50350;SDS011;36250;48.740;22.174;2022-10-16T02:10:38;38.17;;;25.77;;
50350;SDS011;36250;48.740;22.174;2022-10-16T02:13:09;42.17;;;27.02;;
50350;SDS011;36250;48.740;22.174;2022-10-16T02:15:38;43.38;;;28.58;;
50350;SDS011;36250;48.740;22.174;2022-10-16T02:18:04;44.08;;;29.95;;
50350;SDS011;36250;48.740;22.174;2022-10-16T02:21:16;43.97;;;28.63;;
50350;SDS011;36250;48.740;22.174;2022-10-16T02:23:37;41.33;;;29.55;;
50350;SDS011;36250;48.740;22.174;2022-10-16T02:26:15;42.67;;;29.55;;
50350;SDS011;36250;48.740;22.174;2022-10-16T02:28:48;47.88;;;30.02;;
50350;SDS011;36250;48.740;22.174;2022-10-16T02:31:21;47.05;;;29.15;;
50350;SDS011;36250;48.740;22.174;2022-10-16T02:33:52;38.55;;;26.88;;
50350;SDS011;36250;48.740;22.174;2022-10-16T02:36:19;45.63;;;27.73;;
50350;SDS011;36250;48.740;22.174;2022-10-16T02:38:46;38.38;;;28.42;;
50350;SDS011;36250;48.740;22.174;2022-10-16T02:41:11;41.20;;;27.02;;
50350;SDS011;36250;48.740;22.174;2022-10-16T02:43:37;37.15;;;26.00;;
50350;SDS011;36250;48.740;22.174;2022-10-16T02:46:02;38.17;;;26.63;;
50350;SDS011;36250;48.740;22.174;2022-10-16T02:48:28;41.75;;;29.13;;
50350;SDS011;36250;48.740;22.174;2022-10-16T02:50:53;37.45;;;28.08;;
50350;SDS011;36250;48.740;22.174;2022-10-16T02:53:18;38.95;;;27.35;;
50350;SDS011;36250;48.740;22.174;2022-10-16T02:55:44;37.97;;;26.40;;
50350;SDS011;36250;48.740;22.174;2022-10-16T02:58:09;41.35;;;27.05;;
50350;SDS011;36250;48.740;22.174;2022-10-16T03:00:34;40.45;;;25.83;;
50350;SDS011;36250;48.740;22.174;2022-10-16T03:03:00;37.58;;;25.55;;
50350;SDS011;36250;48.740;22.174;2022-10-16T03:05:25;38.95;;;25.35;;
50350;SDS011;36250;48.740;22.174;2022-10-16T03:07:51;38.55;;;25.98;;
50350;SDS011;36250;48.740;22.174;2022-10-16T03:10:17;41.83;;;27.20;;
50350;SDS011;36250;48.740;22.174;2022-10-16T03:12:43;33.75;;;25.33;;
50350;SDS011;36250;48.740;22.174;2022-10-16T03:15:09;44.92;;;26.52;;
50350;SDS011;36250;48.740;22.174;2022-10-16T03:17:34;37.00;;;25.63;;
50350;SDS011;36250;48.740;22.174;2022-10-16T03:20:00;38.55;;;27.23;;
50350;SDS011;36250;48.740;22.174;2022-10-16T03:22:25;31.85;;;24.02;;
50350;SDS011;36250;48.740;22.174;2022-10-16T03:24:50;39.10;;;27.55;;
50350;SDS011;36250;48.740;22.174;2022-10-16T03:27:16;35.35;;;24.95;;
50350;SDS011;36250;48.740;22.174;2022-10-16T03:29:41;36.20;;;24.05;;
50350;SDS011;36250;48.740;22.174;2022-10-16T03:32:06;38.03;;;25.77;;
50350;SDS011;36250;48.740;22.174;2022-10-16T03:34:32;34.53;;;24.77;;
50350;SDS011;36250;48.740;22.174;2022-10-16T03:36:57;40.67;;;26.23;;
50350;SDS011;36250;48.740;22.174;2022-10-16T03:39:22;40.88;;;27.90;;
50350;SDS011;36250;48.740;22.174;2022-10-16T03:41:48;40.38;;;27.15;;
50350;SDS011;36250;48.740;22.174;2022-10-16T03:44:13;40.15;;;27.17;;
50350;SDS011;36250;48.740;22.174;2022-10-16T03:46:38;39.25;;;26.92;;
50350;SDS011;36250;48.740;22.174;2022-10-16T03:49:04;40.47;;;27.67;;
50350;SDS011;36250;48.740;22.174;2022-10-16T03:51:30;38.53;;;26.50;;
50350;SDS011;36250;48.740;22.174;2022-10-16T03:53:55;40.03;;;27.38;;
50350;SDS011;36250;48.740;22.174;2022-10-16T03:56:20;40.42;;;27.83;;
50350;SDS011;36250;48.740;22.174;2022-10-16T03:58:46;38.78;;;26.55;;
50350;SDS011;36250;48.740;22.174;2022-10-16T04:01:11;42.60;;;29.67;;
50350;SDS011;36250;48.740;22.174;2022-10-16T04:03:36;41.83;;;27.75;;
50350;SDS011;36250;48.740;22.174;2022-10-16T04:06:02;37.47;;;26.30;;
50350;SDS011;36250;48.740;22.174;2022-10-16T04:08:27;37.28;;;26.73;;
50350;SDS011;36250;48.740;22.174;2022-10-16T04:10:52;40.50;;;27.02;;
50350;SDS011;36250;48.740;22.174;2022-10-16T04:13:18;38.40;;;27.30;;
50350;SDS011;36250;48.740;22.174;2022-10-16T04:15:44;36.90;;;26.70;;
50350;SDS011;36250;48.740;22.174;2022-10-16T04:18:10;38.40;;;25.05;;
50350;SDS011;36250;48.740;22.174;2022-10-16T04:20:35;37.30;;;26.17;;
50350;SDS011;36250;48.740;22.174;2022-10-16T04:23:00;40.55;;;26.85;;
50350;SDS011;36250;48.740;22.174;2022-10-16T04:25:26;47.38;;;31.48;;
50350;SDS011;36250;48.740;22.174;2022-10-16T04:27:54;46.10;;;31.25;;
50350;SDS011;36250;48.740;22.174;2022-10-16T04:30:20;56.50;;;33.80;;
50350;SDS011;36250;48.740;22.174;2022-10-16T04:32:49;45.25;;;32.75;;
50350;SDS011;36250;48.740;22.174;2022-10-16T04:35:15;47.70;;;31.17;;
50350;SDS011;36250;48.740;22.174;2022-10-16T04:37:42;47.03;;;30.92;;
50350;SDS011;36250;48.740;22.174;2022-10-16T04:40:07;43.15;;;28.83;;
50350;SDS011;36250;48.740;22.174;2022-10-16T04:42:32;38.03;;;26.45;;
50350;SDS011;36250;48.740;22.174;2022-10-16T04:44:58;51.88;;;30.13;;
50350;SDS011;36250;48.740;22.174;2022-10-16T04:47:23;46.58;;;31.83;;
50350;SDS011;36250;48.740;22.174;2022-10-16T04:49:48;44.20;;;30.45;;
50350;SDS011;36250;48.740;22.174;2022-10-16T04:52:14;43.72;;;30.25;;
50350;SDS011;36250;48.740;22.174;2022-10-16T04:54:39;51.03;;;32.45;;
50350;SDS011;36250;48.740;22.174;2022-10-16T04:57:05;78.55;;;47.75;;
50350;SDS011;36250;48.740;22.174;2022-10-16T04:59:30;78.68;;;47.30;;
50350;SDS011;36250;48.740;22.174;2022-10-16T05:01:55;67.72;;;42.17;;
50350;SDS011;36250;48.740;22.174;2022-10-16T05:04:21;52.90;;;34.78;;
50350;SDS011;36250;48.740;22.174;2022-10-16T05:06:47;55.50;;;38.63;;
50350;SDS011;36250;48.740;22.174;2022-10-16T05:09:13;48.38;;;33.13;;
50350;SDS011;36250;48.740;22.174;2022-10-16T05:11:38;47.88;;;30.33;;
50350;SDS011;36250;48.740;22.174;2022-10-16T05:14:03;48.15;;;32.55;;
50350;SDS011;36250;48.740;22.174;2022-10-16T05:16:29;44.00;;;30.17;;
50350;SDS011;36250;48.740;22.174;2022-10-16T05:18:55;45.25;;;30.10;;
50350;SDS011;36250;48.740;22.174;2022-10-16T05:21:21;44.75;;;30.17;;
50350;SDS011;36250;48.740;22.174;2022-10-16T05:23:46;55.72;;;36.03;;
50350;SDS011;36250;48.740;22.174;2022-10-16T05:26:11;200.65;;;127.15;;
50350;SDS011;36250;48.740;22.174;2022-10-16T05:28:37;76.10;;;52.50;;
50350;SDS011;36250;48.740;22.174;2022-10-16T05:31:05;79.70;;;53.15;;
50350;SDS011;36250;48.740;22.174;2022-10-16T05:33:32;95.30;;;63.72;;
50350;SDS011;36250;48.740;22.174;2022-10-16T05:36:08;51.97;;;38.10;;
50350;SDS011;36250;48.740;22.174;2022-10-16T05:38:34;55.97;;;40.90;;
50350;SDS011;36250;48.740;22.174;2022-10-16T05:41:00;47.45;;;32.38;;
50350;SDS011;36250;48.740;22.174;2022-10-16T05:43:27;49.15;;;34.08;;
50350;SDS011;36250;48.740;22.174;2022-10-16T05:45:56;45.17;;;31.98;;
50350;SDS011;36250;48.740;22.174;2022-10-16T05:48:24;43.63;;;32.42;;
50350;SDS011;36250;48.740;22.174;2022-10-16T05:51:06;43.35;;;31.15;;
50350;SDS011;36250;48.740;22.174;2022-10-16T05:53:35;47.05;;;30.77;;
50350;SDS011;36250;48.740;22.174;2022-10-16T05:56:01;51.45;;;30.30;;
50350;SDS011;36250;48.740;22.174;2022-10-16T05:58:31;51.13;;;30.52;;
50350;SDS011;36250;48.740;22.174;2022-10-16T06:00:59;52.35;;;30.98;;
50350;SDS011;36250;48.740;22.174;2022-10-16T06:03:29;47.30;;;29.02;;
50350;SDS011;36250;48.740;22.174;2022-10-16T06:05:55;50.10;;;31.83;;
50350;SDS011;36250;48.740;22.174;2022-10-16T06:08:21;50.83;;;30.70;;
50350;SDS011;36250;48.740;22.174;2022-10-16T06:10:48;70.07;;;43.33;;
50350;SDS011;36250;48.740;22.174;2022-10-16T06:13:14;60.92;;;40.17;;
50350;SDS011;36250;48.740;22.174;2022-10-16T06:15:40;62.20;;;43.08;;
50350;SDS011;36250;48.740;22.174;2022-10-16T06:18:07;62.50;;;40.90;;
50350;SDS011;36250;48.740;22.174;2022-10-16T06:20:33;54.83;;;35.25;;
50350;SDS011;36250;48.740;22.174;2022-10-16T06:22:59;53.67;;;34.90;;
50350;SDS011;36250;48.740;22.174;2022-10-16T06:25:24;52.85;;;32.58;;
50350;SDS011;36250;48.740;22.174;2022-10-16T06:27:49;41.63;;;27.10;;
50350;SDS011;36250;48.740;22.174;2022-10-16T06:30:15;49.05;;;26.92;;
50350;SDS011;36250;48.740;22.174;2022-10-16T06:32:40;34.42;;;26.20;;
50350;SDS011;36250;48.740;22.174;2022-10-16T06:35:05;40.47;;;26.33;;
50350;SDS011;36250;48.740;22.174;2022-10-16T06:37:31;43.50;;;25.63;;
50350;SDS011;36250;48.740;22.174;2022-10-16T06:39:56;39.55;;;26.75;;
50350;SDS011;36250;48.740;22.174;2022-10-16T06:42:21;41.58;;;26.30;;
50350;SDS011;36250;48.740;22.174;2022-10-16T06:44:47;35.92;;;23.45;;
50350;SDS011;36250;48.740;22.174;2022-10-16T06:47:12;36.03;;;24.00;;
50350;SDS011;36250;48.740;22.174;2022-10-16T06:49:37;31.40;;;22.92;;
50350;SDS011;36250;48.740;22.174;2022-10-16T06:52:03;37.20;;;22.77;;
50350;SDS011;36250;48.740;22.174;2022-10-16T06:54:28;34.05;;;22.95;;
50350;SDS011;36250;48.740;22.174;2022-10-16T06:56:54;34.67;;;22.63;;
50350;SDS011;36250;48.740;22.174;2022-10-16T06:59:20;36.90;;;23.92;;
50350;SDS011;36250;48.740;22.174;2022-10-16T07:01:46;33.28;;;22.50;;
50350;SDS011;36250;48.740;22.174;2022-10-16T07:04:11;32.15;;;21.50;;
50350;SDS011;36250;48.740;22.174;2022-10-16T07:06:37;31.55;;;21.10;;
50350;SDS011;36250;48.740;22.174;2022-10-16T07:09:03;33.17;;;23.15;;
50350;SDS011;36250;48.740;22.174;2022-10-16T07:11:31;30.15;;;19.15;;
50350;SDS011;36250;48.740;22.174;2022-10-16T07:13:56;30.00;;;19.33;;
50350;SDS011;36250;48.740;22.174;2022-10-16T07:16:23;30.05;;;20.08;;
50350;SDS011;36250;48.740;22.174;2022-10-16T07:18:50;25.45;;;18.38;;
50350;SDS011;36250;48.740;22.174;2022-10-16T07:21:17;27.25;;;19.77;;
50350;SDS011;36250;48.740;22.174;2022-10-16T07:23:59;26.58;;;18.92;;
50350;SDS011;36250;48.740;22.174;2022-10-16T07:26:26;30.00;;;17.92;;
50350;SDS011;36250;48.740;22.174;2022-10-16T07:28:53;28.65;;;19.38;;
50350;SDS011;36250;48.740;22.174;2022-10-16T07:31:19;29.08;;;19.17;;
50350;SDS011;36250;48.740;22.174;2022-10-16T07:33:45;32.30;;;19.73;;
50350;SDS011;36250;48.740;22.174;2022-10-16T07:36:13;27.70;;;18.40;;
50350;SDS011;36250;48.740;22.174;2022-10-16T07:38:39;34.13;;;19.70;;
50350;SDS011;36250;48.740;22.174;2022-10-16T07:41:08;27.23;;;18.25;;
50350;SDS011;36250;48.740;22.174;2022-10-16T07:43:36;29.05;;;18.08;;
50350;SDS011;36250;48.740;22.174;2022-10-16T07:46:02;28.30;;;16.80;;
50350;SDS011;36250;48.740;22.174;2022-10-16T07:48:29;35.72;;;17.75;;
50350;SDS011;36250;48.740;22.174;2022-10-16T07:50:57;25.23;;;18.27;;
50350;SDS011;36250;48.740;22.174;2022-10-16T07:53:26;31.10;;;18.67;;
50350;SDS011;36250;48.740;22.174;2022-10-16T07:55:54;27.40;;;18.92;;
50350;SDS011;36250;48.740;22.174;2022-10-16T07:58:23;30.58;;;19.50;;
50350;SDS011;36250;48.740;22.174;2022-10-16T08:00:48;23.08;;;17.15;;
50350;SDS011;36250;48.740;22.174;2022-10-16T08:03:13;31.67;;;18.33;;
50350;SDS011;36250;48.740;22.174;2022-10-16T08:05:38;27.85;;;17.08;;
50350;SDS011;36250;48.740;22.174;2022-10-16T08:08:04;24.40;;;15.85;;
50350;SDS011;36250;48.740;22.174;2022-10-16T08:10:29;25.38;;;15.90;;
50350;SDS011;36250;48.740;22.174;2022-10-16T08:12:55;22.92;;;15.48;;
50350;SDS011;36250;48.740;22.174;2022-10-16T08:15:21;22.60;;;15.32;;
50350;SDS011;36250;48.740;22.174;2022-10-16T08:17:56;21.23;;;14.85;;
50350;SDS011;36250;48.740;22.174;2022-10-16T08:20:23;19.73;;;13.07;;
50350;SDS011;36250;48.740;22.174;2022-10-16T08:22:49;18.13;;;14.40;;
50350;SDS011;36250;48.740;22.174;2022-10-16T08:25:14;24.48;;;14.20;;
50350;SDS011;36250;48.740;22.174;2022-10-16T08:27:39;20.15;;;13.70;;
50350;SDS011;36250;48.740;22.174;2022-10-16T08:30:05;20.35;;;13.88;;
50350;SDS011;36250;48.740;22.174;2022-10-16T08:32:31;19.73;;;13.38;;
50350;SDS011;36250;48.740;22.174;2022-10-16T08:34:56;19.48;;;11.95;;
50350;SDS011;36250;48.740;22.174;2022-10-16T08:37:21;17.98;;;13.57;;
50350;SDS011;36250;48.740;22.174;2022-10-16T08:39:47;18.73;;;12.95;;
50350;SDS011;36250;48.740;22.174;2022-10-16T08:45:00;17.77;;;10.95;;
50350;SDS011;36250;48.740;22.174;2022-10-16T08:50:17;17.67;;;11.05;;
50350;SDS011;36250;48.740;22.174;2022-10-16T08:52:48;13.18;;;9.43;;
50350;SDS011;36250;48.740;22.174;2022-10-16T08:55:48;13.32;;;9.80;;
50350;SDS011;36250;48.740;22.174;2022-10-16T08:58:10;13.55;;;9.63;;
50350;SDS011;36250;48.740;22.174;2022-10-16T09:00:38;23.25;;;11.48;;
50350;SDS011;36250;48.740;22.174;2022-10-16T09:05:38;18.73;;;9.80;;
50350;SDS011;36250;48.740;22.174;2022-10-16T09:08:24;14.00;;;8.98;;
50350;SDS011;36250;48.740;22.174;2022-10-16T09:11:03;13.07;;;9.48;;
50350;SDS011;36250;48.740;22.174;2022-10-16T09:16:16;13.05;;;8.48;;
50350;SDS011;36250;48.740;22.174;2022-10-16T09:24:11;10.40;;;8.15;;
50350;SDS011;36250;48.740;22.174;2022-10-16T09:26:39;10.88;;;7.30;;
50350;SDS011;36250;48.740;22.174;2022-10-16T09:29:04;8.98;;;6.45;;
50350;SDS011;36250;48.740;22.174;2022-10-16T09:31:30;7.47;;;5.40;;
50350;SDS011;36250;48.740;22.174;2022-10-16T09:33:57;10.93;;;7.35;;
50350;SDS011;36250;48.740;22.174;2022-10-16T09:36:25;11.20;;;6.57;;
50350;SDS011;36250;48.740;22.174;2022-10-16T09:39:01;11.40;;;5.95;;
50350;SDS011;36250;48.740;22.174;2022-10-16T09:41:33;9.75;;;6.93;;
50350;SDS011;36250;48.740;22.174;2022-10-16T09:44:01;12.35;;;7.30;;
50350;SDS011;36250;48.740;22.174;2022-10-16T09:46:32;7.53;;;6.18;;
50350;SDS011;36250;48.740;22.174;2022-10-16T09:49:01;10.98;;;7.10;;
50350;SDS011;36250;48.740;22.174;2022-10-16T09:53:55;12.30;;;8.32;;
50350;SDS011;36250;48.740;22.174;2022-10-16T09:56:37;11.93;;;7.57;;
50350;SDS011;36250;48.740;22.174;2022-10-16T09:59:13;12.90;;;8.50;;
50350;SDS011;36250;48.740;22.174;2022-10-16T10:01:41;10.18;;;7.47;;
50350;SDS011;36250;48.740;22.174;2022-10-16T10:04:11;13.45;;;9.00;;
50350;SDS011;36250;48.740;22.174;2022-10-16T10:06:37;14.73;;;8.10;;
50350;SDS011;36250;48.740;22.174;2022-10-16T10:14:34;12.10;;;7.63;;
50350;SDS011;36250;48.740;22.174;2022-10-16T10:19:36;13.32;;;8.18;;
50350;SDS011;36250;48.740;22.174;2022-10-16T10:22:19;9.27;;;8.10;;
50350;SDS011;36250;48.740;22.174;2022-10-16T10:24:55;12.90;;;7.97;;
50350;SDS011;36250;48.740;22.174;2022-10-16T10:27:24;13.70;;;8.05;;
50350;SDS011;36250;48.740;22.174;2022-10-16T10:30:02;15.45;;;9.25;;
50350;SDS011;36250;48.740;22.174;2022-10-16T10:35:19;11.38;;;8.25;;
50350;SDS011;36250;48.740;22.174;2022-10-16T10:41:02;13.15;;;7.60;;
50350;SDS011;36250;48.740;22.174;2022-10-16T10:46:19;17.48;;;8.43;;
50350;SDS011;36250;48.740;22.174;2022-10-16T10:51:44;15.82;;;8.30;;
50350;SDS011;36250;48.740;22.174;2022-10-16T10:54:36;12.50;;;8.45;;
50350;SDS011;36250;48.740;22.174;2022-10-16T10:57:59;11.38;;;8.57;;
50350;SDS011;36250;48.740;22.174;2022-10-16T11:00:21;11.95;;;8.10;;
50350;SDS011;36250;48.740;22.174;2022-10-16T11:05:49;13.23;;;8.27;;
50350;SDS011;36250;48.740;22.174;2022-10-16T11:08:27;13.07;;;8.23;;
50350;SDS011;36250;48.740;22.174;2022-10-16T11:10:58;13.60;;;8.57;;
50350;SDS011;36250;48.740;22.174;2022-10-16T11:15:55;9.82;;;7.95;;
50350;SDS011;36250;48.740;22.174;2022-10-16T11:18:36;13.13;;;7.82;;
50350;SDS011;36250;48.740;22.174;2022-10-16T11:21:17;14.02;;;8.50;;
50350;SDS011;36250;48.740;22.174;2022-10-16T11:23:48;11.63;;;8.25;;
50350;SDS011;36250;48.740;22.174;2022-10-16T11:26:41;9.02;;;7.65;;
50350;SDS011;36250;48.740;22.174;2022-10-16T11:29:11;16.67;;;8.25;;
50350;SDS011;36250;48.740;22.174;2022-10-16T11:31:46;12.85;;;8.05;;
50350;SDS011;36250;48.740;22.174;2022-10-16T11:34:21;10.48;;;7.55;;
50350;SDS011;36250;48.740;22.174;2022-10-16T11:37:02;21.13;;;7.88;;
50350;SDS011;36250;48.740;22.174;2022-10-16T11:39:35;16.33;;;8.65;;
50350;SDS011;36250;48.740;22.174;2022-10-16T11:52:42;11.43;;;6.90;;
50350;SDS011;36250;48.740;22.174;2022-10-16T11:55:16;11.43;;;7.68;;
50350;SDS011;36250;48.740;22.174;2022-10-16T11:57:56;13.68;;;7.32;;
50350;SDS011;36250;48.740;22.174;2022-10-16T12:00:28;9.93;;;6.90;;
50350;SDS011;36250;48.740;22.174;2022-10-16T12:06:04;9.93;;;7.18;;
50350;SDS011;36250;48.740;22.174;2022-10-16T12:08:44;8.93;;;6.63;;
50350;SDS011;36250;48.740;22.174;2022-10-16T12:16:37;6.85;;;6.00;;
50350;SDS011;36250;48.740;22.174;2022-10-16T12:19:15;8.43;;;6.65;;
50350;SDS011;36250;48.740;22.174;2022-10-16T12:21:44;7.55;;;5.78;;
50350;SDS011;36250;48.740;22.174;2022-10-16T12:24:20;9.82;;;5.50;;
50350;SDS011;36250;48.740;22.174;2022-10-16T12:26:52;11.20;;;6.22;;
50350;SDS011;36250;48.740;22.174;2022-10-16T12:31:55;11.57;;;5.68;;
50350;SDS011;36250;48.740;22.174;2022-10-16T12:37:20;9.23;;;5.22;;
50350;SDS011;36250;48.740;22.174;2022-10-16T12:39:49;9.60;;;5.63;;
50350;SDS011;36250;48.740;22.174;2022-10-16T12:44:47;7.37;;;5.63;;
50350;SDS011;36250;48.740;22.174;2022-10-16T12:49:57;9.25;;;4.88;;
50350;SDS011;36250;48.740;22.174;2022-10-16T12:52:27;6.85;;;5.65;;
50350;SDS011;36250;48.740;22.174;2022-10-16T12:54:57;7.35;;;5.57;;
50350;SDS011;36250;48.740;22.174;2022-10-16T13:00:05;6.93;;;5.05;;
50350;SDS011;36250;48.740;22.174;2022-10-16T13:03:02;8.43;;;4.67;;
50350;SDS011;36250;48.740;22.174;2022-10-16T13:11:14;9.20;;;4.47;;
50350;SDS011;36250;48.740;22.174;2022-10-16T13:14:11;5.82;;;4.18;;
50350;SDS011;36250;48.740;22.174;2022-10-16T13:25:25;4.55;;;4.10;;
50350;SDS011;36250;48.740;22.174;2022-10-16T13:28:08;7.28;;;4.47;;
50350;SDS011;36250;48.740;22.174;2022-10-16T13:30:42;8.45;;;4.70;;
50350;SDS011;36250;48.740;22.174;2022-10-16T13:35:35;6.43;;;5.03;;
50350;SDS011;36250;48.740;22.174;2022-10-16T13:38:14;6.18;;;4.50;;
50350;SDS011;36250;48.740;22.174;2022-10-16T13:40:48;9.90;;;4.53;;
50350;SDS011;36250;48.740;22.174;2022-10-16T13:43:23;7.30;;;4.28;;
50350;SDS011;36250;48.740;22.174;2022-10-16T13:46:13;10.35;;;4.68;;
50350;SDS011;36250;48.740;22.174;2022-10-16T13:48:39;6.18;;;4.57;;
50350;SDS011;36250;48.740;22.174;2022-10-16T13:53:36;7.82;;;4.30;;
50350;SDS011;36250;48.740;22.174;2022-10-16T13:56:03;4.40;;;4.03;;
50350;SDS011;36250;48.740;22.174;2022-10-16T13:58:30;6.72;;;4.13;;
50350;SDS011;36250;48.740;22.174;2022-10-16T14:01:00;5.25;;;4.10;;
50350;SDS011;36250;48.740;22.174;2022-10-16T14:03:31;6.55;;;4.18;;
50350;SDS011;36250;48.740;22.174;2022-10-16T14:06:02;7.97;;;4.15;;
50350;SDS011;36250;48.740;22.174;2022-10-16T14:08:30;5.53;;;4.68;;
50350;SDS011;36250;48.740;22.174;2022-10-16T14:10:59;6.40;;;5.00;;
50350;SDS011;36250;48.740;22.174;2022-10-16T14:13:30;6.22;;;4.68;;
50350;SDS011;36250;48.740;22.174;2022-10-16T14:15:59;5.38;;;4.30;;
50350;SDS011;36250;48.740;22.174;2022-10-16T14:18:31;9.40;;;5.20;;
50350;SDS011;36250;48.740;22.174;2022-10-16T14:21:02;5.65;;;4.50;;
50350;SDS011;36250;48.740;22.174;2022-10-16T14:23:36;8.00;;;4.43;;
50350;SDS011;36250;48.740;22.174;2022-10-16T14:26:12;8.05;;;4.93;;
50350;SDS011;36250;48.740;22.174;2022-10-16T14:28:39;8.57;;;6.50;;
50350;SDS011;36250;48.740;22.174;2022-10-16T14:33:46;5.80;;;4.80;;
50350;SDS011;36250;48.740;22.174;2022-10-16T14:36:12;5.75;;;5.07;;
50350;SDS011;36250;48.740;22.174;2022-10-16T14:38:40;7.72;;;5.30;;
50350;SDS011;36250;48.740;22.174;2022-10-16T14:41:07;9.70;;;5.72;;
50350;SDS011;36250;48.740;22.174;2022-10-16T14:43:36;9.07;;;5.72;;
50350;SDS011;36250;48.740;22.174;2022-10-16T14:46:06;11.70;;;8.32;;
50350;SDS011;36250;48.740;22.174;2022-10-16T14:48:39;12.35;;;11.02;;
50350;SDS011;36250;48.740;22.174;2022-10-16T14:51:14;7.53;;;5.88;;
50350;SDS011;36250;48.740;22.174;2022-10-16T14:53:41;8.40;;;5.78;;
50350;SDS011;36250;48.740;22.174;2022-10-16T14:56:07;11.05;;;6.15;;
50350;SDS011;36250;48.740;22.174;2022-10-16T14:58:34;19.05;;;11.88;;
50350;SDS011;36250;48.740;22.174;2022-10-16T15:01:00;18.08;;;12.05;;
50350;SDS011;36250;48.740;22.174;2022-10-16T15:03:25;15.52;;;8.57;;
50350;SDS011;36250;48.740;22.174;2022-10-16T15:05:50;10.68;;;7.93;;
50350;SDS011;36250;48.740;22.174;2022-10-16T15:08:16;9.05;;;5.97;;
50350;SDS011;36250;48.740;22.174;2022-10-16T15:10:42;6.15;;;5.53;;
50350;SDS011;36250;48.740;22.174;2022-10-16T15:13:12;14.60;;;5.82;;
50350;SDS011;36250;48.740;22.174;2022-10-16T15:15:48;14.02;;;9.07;;
50350;SDS011;36250;48.740;22.174;2022-10-16T15:18:14;11.68;;;6.80;;
50350;SDS011;36250;48.740;22.174;2022-10-16T15:20:44;9.10;;;7.20;;
50350;SDS011;36250;48.740;22.174;2022-10-16T15:23:13;9.68;;;5.85;;
50350;SDS011;36250;48.740;22.174;2022-10-16T15:28:16;13.45;;;9.00;;
50350;SDS011;36250;48.740;22.174;2022-10-16T15:30:42;13.40;;;10.75;;
50350;SDS011;36250;48.740;22.174;2022-10-16T15:33:11;16.95;;;9.95;;
50350;SDS011;36250;48.740;22.174;2022-10-16T15:35:39;11.00;;;8.00;;
50350;SDS011;36250;48.740;22.174;2022-10-16T15:38:04;13.48;;;8.40;;
50350;SDS011;36250;48.740;22.174;2022-10-16T15:40:29;8.65;;;7.18;;
50350;SDS011;36250;48.740;22.174;2022-10-16T15:42:55;8.05;;;6.30;;
50350;SDS011;36250;48.740;22.174;2022-10-16T15:45:20;14.35;;;7.45;;
50350;SDS011;36250;48.740;22.174;2022-10-16T15:47:46;12.43;;;6.50;;
50350;SDS011;36250;48.740;22.174;2022-10-16T15:50:12;14.25;;;6.72;;
50350;SDS011;36250;48.740;22.174;2022-10-16T15:52:39;14.07;;;7.55;;
50350;SDS011;36250;48.740;22.174;2022-10-16T15:55:06;11.98;;;6.70;;
50350;SDS011;36250;48.740;22.174;2022-10-16T15:57:33;20.75;;;9.40;;
50350;SDS011;36250;48.740;22.174;2022-10-16T15:59:58;36.97;;;22.48;;
50350;SDS011;36250;48.740;22.174;2022-10-16T16:02:24;44.83;;;30.17;;
50350;SDS011;36250;48.740;22.174;2022-10-16T16:04:49;29.05;;;17.48;;
50350;SDS011;36250;48.740;22.174;2022-10-16T16:07:14;26.63;;;16.35;;
50350;SDS011;36250;48.740;22.174;2022-10-16T16:09:40;26.67;;;13.48;;
50350;SDS011;36250;48.740;22.174;2022-10-16T16:12:05;19.88;;;12.35;;